createdAt,value
2018-09-15T00:00:50.003Z,0
2018-09-15T00:01:49.995Z,0
2018-09-15T00:02:49.737Z,0
2018-09-15T00:03:49.985Z,0
2018-09-15T00:04:49.473Z,0
2018-09-15T00:05:49.978Z,0
2018-09-15T00:06:49.968Z,0
2018-09-15T00:07:49.958Z,0
2018-09-15T00:08:49.961Z,0
2018-09-15T00:09:49.962Z,0
2018-09-15T00:10:49.699Z,0
2018-09-15T00:11:49.442Z,0
2018-09-15T00:12:49.696Z,0
2018-09-15T00:13:49.936Z,0
2018-09-15T00:14:49.935Z,0
2018-09-15T00:15:49.918Z,0
2018-09-15T00:16:49.915Z,0
2018-09-15T00:17:49.973Z,0
2018-09-15T00:18:49.900Z,0
2018-09-15T00:19:49.905Z,0
2018-09-15T00:20:49.905Z,0
2018-09-15T00:21:49.891Z,0
2018-09-15T00:22:49.387Z,0
2018-09-15T00:23:49.626Z,0
2018-09-15T00:24:49.366Z,0
2018-09-15T00:25:49.623Z,0
2018-09-15T00:26:49.612Z,0
2018-09-15T00:27:49.858Z,0
2018-09-15T00:28:49.841Z,0
2018-09-15T00:29:49.845Z,0
2018-09-15T00:30:49.587Z,0
2018-09-15T00:31:49.577Z,0
2018-09-15T00:32:49.819Z,0
2018-09-15T00:33:49.814Z,0
2018-09-15T00:34:49.815Z,0
2018-09-15T00:35:49.816Z,0
2018-09-15T00:36:49.295Z,0
2018-09-15T00:37:49.807Z,0
2018-09-15T00:38:49.869Z,0
2018-09-15T00:39:49.786Z,0
2018-09-15T00:40:49.769Z,0
2018-09-15T00:41:49.381Z,0
2018-09-15T00:42:49.758Z,0
2018-09-15T00:43:49.495Z,0
2018-09-15T00:44:49.232Z,0
2018-09-15T00:45:49.478Z,0
2018-09-15T00:46:49.478Z,0
2018-09-15T00:47:49.479Z,0
2018-09-15T00:48:49.711Z,0
2018-09-15T00:49:49.485Z,0
2018-09-15T00:50:49.946Z,0
2018-09-15T00:51:49.691Z,0
2018-09-15T00:52:49.685Z,0
2018-09-15T00:53:49.689Z,0
2018-09-15T00:54:49.172Z,0
2018-09-15T00:55:49.417Z,0
2018-09-15T00:56:49.154Z,0
2018-09-15T00:57:49.678Z,0
2018-09-15T00:58:49.392Z,0
2018-09-15T00:59:49.441Z,0
2018-09-15T01:00:49.384Z,0
2018-09-15T01:01:49.127Z,0
2018-09-15T01:02:49.671Z,0
2018-09-15T01:03:49.360Z,0
2018-09-15T01:04:49.352Z,0
2018-09-15T01:05:49.593Z,0
2018-09-15T01:06:49.349Z,0
2018-09-15T01:07:49.606Z,0
2018-09-15T01:08:49.325Z,0
2018-09-15T01:09:49.577Z,0
2018-09-15T01:10:49.565Z,0
2018-09-15T01:11:49.593Z,0
2018-09-15T01:12:49.310Z,0
2018-09-15T01:13:49.294Z,0
2018-09-15T01:14:49.293Z,0
2018-09-15T01:15:49.281Z,0
2018-09-15T01:16:49.272Z,0
2018-09-15T01:17:49.522Z,0
2018-09-15T01:18:49.257Z,0
2018-09-15T01:19:49.496Z,0
2018-09-15T01:20:48.992Z,0
2018-09-15T01:21:49.482Z,0
2018-09-15T01:22:49.476Z,0
2018-09-15T01:23:49.219Z,0
2018-09-15T01:24:49.215Z,0
2018-09-15T01:25:49.203Z,0
2018-09-15T01:26:49.459Z,0
2018-09-15T01:27:49.440Z,0
2018-09-15T01:28:49.180Z,0
2018-09-15T01:29:49.181Z,0
2018-09-15T01:30:49.174Z,0
2018-09-15T01:31:49.158Z,0
2018-09-15T01:32:49.158Z,0
2018-09-15T01:33:49.397Z,0
2018-09-15T01:34:49.139Z,0
2018-09-15T01:35:49.381Z,0
2018-09-15T01:36:49.122Z,0
2018-09-15T01:37:49.369Z,0
2018-09-15T01:38:48.857Z,0
2018-09-15T01:39:49.102Z,0
2018-09-15T01:40:49.344Z,0
2018-09-15T01:41:49.086Z,0
2018-09-15T01:42:49.342Z,0
2018-09-15T01:43:49.323Z,0
2018-09-15T01:44:49.066Z,0
2018-09-15T01:45:48.805Z,0
2018-09-15T01:46:49.315Z,0
2018-09-15T01:47:49.047Z,0
2018-09-15T01:48:49.292Z,0
2018-09-15T01:49:49.027Z,0
2018-09-15T01:50:49.273Z,0
2018-09-15T01:51:49.020Z,0
2018-09-15T01:52:49.508Z,0
2018-09-15T01:53:49.258Z,0
2018-09-15T01:54:49.252Z,0
2018-09-15T01:55:49.483Z,0
2018-09-15T01:56:48.987Z,0
2018-09-15T01:57:49.537Z,0
2018-09-15T01:58:49.223Z,0
2018-09-15T01:59:49.211Z,0
2018-09-15T02:00:49.211Z,0
2018-09-15T02:01:48.951Z,0
2018-09-15T02:02:49.196Z,0
2018-09-15T02:03:49.177Z,0
2018-09-15T02:04:48.922Z,0
2018-09-15T02:05:48.925Z,0
2018-09-15T02:06:49.162Z,0
2018-09-15T02:07:49.149Z,0
2018-09-15T02:08:49.152Z,0
2018-09-15T02:09:49.137Z,0
2018-09-15T02:10:48.627Z,0
2018-09-15T02:11:49.121Z,0
2018-09-15T02:12:49.111Z,0
2018-09-15T02:13:49.127Z,0
2018-09-15T02:14:49.101Z,0
2018-09-15T02:15:49.092Z,0
2018-09-15T02:16:49.093Z,0
2018-09-15T02:17:49.082Z,0
2018-09-15T02:18:48.815Z,0
2018-09-15T02:19:48.812Z,0
2018-09-15T02:20:48.812Z,0
2018-09-15T02:21:49.045Z,0
2018-09-15T02:22:49.707Z,0
2018-09-15T02:23:49.033Z,0
2018-09-15T02:24:49.031Z,0
2018-09-15T02:25:48.513Z,0
2018-09-15T02:26:49.011Z,0
2018-09-15T02:27:48.751Z,0
2018-09-15T02:28:49.078Z,0
2018-09-15T02:29:48.989Z,0
2018-09-15T02:30:48.982Z,0
2018-09-15T02:31:48.736Z,0
2018-09-15T02:32:48.964Z,0
2018-09-15T02:33:48.713Z,0
2018-09-15T02:34:48.725Z,0
2018-09-15T02:35:48.698Z,0
2018-09-15T02:36:48.441Z,0
2018-09-15T02:37:48.932Z,0
2018-09-15T02:38:48.920Z,0
2018-09-15T02:39:48.409Z,0
2018-09-15T02:40:48.911Z,0
2018-09-15T02:41:48.913Z,0
2018-09-15T02:42:48.664Z,0
2018-09-15T02:43:48.384Z,0
2018-09-15T02:44:48.628Z,0
2018-09-15T02:45:48.616Z,0
2018-09-15T02:46:48.366Z,0
2018-09-15T02:47:48.357Z,0
2018-09-15T02:48:48.591Z,0
2018-09-15T02:49:48.845Z,0
2018-09-15T02:50:48.578Z,0
2018-09-15T02:51:48.582Z,0
2018-09-15T02:52:48.565Z,0
2018-09-15T02:53:48.555Z,0
2018-09-15T02:54:49.054Z,0
2018-09-15T02:55:48.811Z,0
2018-09-15T02:56:48.794Z,0
2018-09-15T02:57:48.533Z,0
2018-09-15T02:58:48.517Z,0
2018-09-15T02:59:48.761Z,0
2018-09-15T03:00:48.760Z,0
2018-09-15T03:01:48.777Z,0
2018-09-15T03:02:48.738Z,0
2018-09-15T03:03:48.744Z,0
2018-09-15T03:04:48.481Z,0
2018-09-15T03:05:48.728Z,0
2018-09-15T03:06:48.712Z,0
2018-09-15T03:07:48.468Z,0
2018-09-15T03:08:48.710Z,0
2018-09-15T03:09:48.437Z,0
2018-09-15T03:10:48.930Z,0
2018-09-15T03:11:48.678Z,0
2018-09-15T03:12:48.423Z,0
2018-09-15T03:13:48.404Z,0
2018-09-15T03:14:48.149Z,0
2018-09-15T03:15:48.687Z,0
2018-09-15T03:16:48.637Z,0
2018-09-15T03:17:48.639Z,0
2018-09-15T03:18:48.628Z,0
2018-09-15T03:19:48.360Z,0
2018-09-15T03:20:48.356Z,0
2018-09-15T03:21:48.601Z,0
2018-09-15T03:22:48.603Z,0
2018-09-15T03:23:48.584Z,0
2018-09-15T03:24:48.573Z,0
2018-09-15T03:25:48.827Z,0
2018-09-15T03:26:48.584Z,0
2018-09-15T03:27:48.307Z,0
2018-09-15T03:28:48.555Z,0
2018-09-15T03:29:48.532Z,0
2018-09-15T03:30:48.580Z,0
2018-09-15T03:31:48.526Z,0
2018-09-15T03:32:48.520Z,0
2018-09-15T03:33:48.013Z,0
2018-09-15T03:34:48.499Z,0
2018-09-15T03:35:48.500Z,0
2018-09-15T03:36:48.491Z,0
2018-09-15T03:37:48.477Z,0
2018-09-15T03:38:48.461Z,0
2018-09-15T03:39:48.457Z,0
2018-09-15T03:40:48.208Z,0
2018-09-15T03:41:49.330Z,0
2018-09-15T03:42:48.444Z,0
2018-09-15T03:43:48.427Z,0
2018-09-15T03:44:48.428Z,0
2018-09-15T03:45:48.411Z,0
2018-09-15T03:46:48.407Z,0
2018-09-15T03:47:48.391Z,0
2018-09-15T03:48:48.382Z,0
2018-09-15T03:49:48.379Z,0
2018-09-15T03:50:48.370Z,0
2018-09-15T03:51:48.369Z,0
2018-09-15T03:52:48.110Z,0
2018-09-15T03:53:48.346Z,0
2018-09-15T03:54:48.341Z,0
2018-09-15T03:55:48.079Z,0
2018-09-15T03:56:48.583Z,0
2018-09-15T03:57:48.311Z,0
2018-09-15T03:58:48.065Z,0
2018-09-15T03:59:48.072Z,0
2018-09-15T04:00:48.290Z,0
2018-09-15T04:01:48.030Z,0
2018-09-15T04:02:48.284Z,0
2018-09-15T04:03:48.016Z,0
2018-09-15T04:04:48.257Z,0
2018-09-15T04:05:48.247Z,0
2018-09-15T04:06:48.004Z,0
2018-09-15T04:07:48.238Z,0
2018-09-15T04:08:47.728Z,0
2018-09-15T04:09:47.716Z,0
2018-09-15T04:10:48.209Z,0
2018-09-15T04:11:48.204Z,0
2018-09-15T04:12:48.190Z,0
2018-09-15T04:13:48.191Z,0
2018-09-15T04:14:47.932Z,0
2018-09-15T04:15:47.921Z,0
2018-09-15T04:16:47.926Z,0
2018-09-15T04:17:47.902Z,0
2018-09-15T04:18:47.644Z,0
2018-09-15T04:19:47.884Z,0
2018-09-15T04:20:48.130Z,0
2018-09-15T04:21:47.618Z,0
2018-09-15T04:22:48.112Z,0
2018-09-15T04:23:47.846Z,0
2018-09-15T04:24:47.592Z,0
2018-09-15T04:25:47.584Z,0
2018-09-15T04:26:48.105Z,0
2018-09-15T04:27:48.078Z,0
2018-09-15T04:28:48.062Z,0
2018-09-15T04:29:47.803Z,0
2018-09-15T04:30:47.791Z,0
2018-09-15T04:31:48.052Z,5
2018-09-15T04:32:47.782Z,5
2018-09-15T04:33:47.773Z,5
2018-09-15T04:34:48.026Z,5
2018-09-15T04:35:48.011Z,5
2018-09-15T04:36:47.741Z,5
2018-09-15T04:37:47.737Z,5
2018-09-15T04:38:47.977Z,5
2018-09-15T04:39:47.721Z,10
2018-09-15T04:40:47.965Z,10
2018-09-15T04:41:48.248Z,10
2018-09-15T04:42:47.689Z,10
2018-09-15T04:43:47.942Z,15
2018-09-15T04:44:47.172Z,15
2018-09-15T04:45:47.664Z,10
2018-09-15T04:46:47.908Z,10
2018-09-15T04:47:47.652Z,10
2018-09-15T04:48:47.897Z,10
2018-09-15T04:49:47.885Z,10
2018-09-15T04:50:47.633Z,10
2018-09-15T04:51:47.867Z,15
2018-09-15T04:52:48.610Z,15
2018-09-15T04:53:47.631Z,15
2018-09-15T04:54:47.857Z,15
2018-09-15T04:55:47.835Z,15
2018-09-15T04:56:47.840Z,15
2018-09-15T04:57:47.566Z,15
2018-09-15T04:58:48.316Z,15
2018-09-15T04:59:48.072Z,15
2018-09-15T05:00:47.799Z,15
2018-09-15T05:01:47.792Z,15
2018-09-15T05:02:47.776Z,15
2018-09-15T05:03:47.523Z,20
2018-09-15T05:04:47.509Z,20
2018-09-15T05:05:47.761Z,25
2018-09-15T05:06:48.207Z,25
2018-09-15T05:07:47.746Z,30
2018-09-15T05:08:47.733Z,35
2018-09-15T05:09:47.222Z,35
2018-09-15T05:10:47.218Z,45
2018-09-15T05:11:47.755Z,45
2018-09-15T05:12:47.649Z,50
2018-09-15T05:13:47.694Z,55
2018-09-15T05:14:47.698Z,60
2018-09-15T05:15:47.681Z,65
2018-09-15T05:16:47.436Z,70
2018-09-15T05:17:47.411Z,70
2018-09-15T05:18:47.656Z,75
2018-09-15T05:19:47.670Z,85
2018-09-15T05:20:47.639Z,85
2018-09-15T05:21:47.630Z,90
2018-09-15T05:22:47.388Z,95
2018-09-15T05:23:47.626Z,105
2018-09-15T05:24:47.366Z,110
2018-09-15T05:25:47.607Z,110
2018-09-15T05:26:47.601Z,115
2018-09-15T05:27:47.585Z,120
2018-09-15T05:28:47.592Z,125
2018-09-15T05:29:47.587Z,130
2018-09-15T05:30:47.821Z,130
2018-09-15T05:31:47.825Z,135
2018-09-15T05:32:47.557Z,150
2018-09-15T05:33:47.294Z,150
2018-09-15T05:34:47.539Z,160
2018-09-15T05:35:47.536Z,165
2018-09-15T05:36:47.276Z,170
2018-09-15T05:37:47.519Z,170
2018-09-15T05:38:47.514Z,170
2018-09-15T05:39:47.589Z,175
2018-09-15T05:40:47.245Z,180
2018-09-15T05:41:47.236Z,185
2018-09-15T05:42:47.231Z,190
2018-09-15T05:43:47.475Z,200
2018-09-15T05:44:47.472Z,205
2018-09-15T05:45:47.227Z,210
2018-09-15T05:46:47.207Z,220
2018-09-15T05:47:47.460Z,230
2018-09-15T05:48:47.504Z,245
2018-09-15T05:49:47.534Z,255
2018-09-15T05:50:47.439Z,260
2018-09-15T05:51:47.179Z,265
2018-09-15T05:52:47.430Z,275
2018-09-15T05:53:47.425Z,285
2018-09-15T05:54:47.422Z,285
2018-09-15T05:55:47.428Z,290
2018-09-15T05:56:47.420Z,295
2018-09-15T05:57:47.404Z,305
2018-09-15T05:58:47.143Z,295
2018-09-15T05:59:47.392Z,300
2018-09-15T06:00:47.134Z,310
2018-09-15T06:01:47.880Z,325
2018-09-15T06:02:47.377Z,335
2018-09-15T06:03:47.390Z,345
2018-09-15T06:04:47.437Z,345
2018-09-15T06:05:47.376Z,350
2018-09-15T06:06:46.785Z,360
2018-09-15T06:07:46.766Z,370
2018-09-15T06:08:47.109Z,380
2018-09-15T06:09:46.850Z,380
2018-09-15T06:10:47.111Z,380
2018-09-15T06:11:46.849Z,380
2018-09-15T06:12:47.347Z,380
2018-09-15T06:13:47.335Z,390
2018-09-15T06:14:47.109Z,395
2018-09-15T06:15:47.340Z,410
2018-09-15T06:16:47.092Z,420
2018-09-15T06:17:47.337Z,430
2018-09-15T06:18:47.334Z,435
2018-09-15T06:19:47.336Z,430
2018-09-15T06:20:47.332Z,440
2018-09-15T06:21:47.334Z,440
2018-09-15T06:22:47.328Z,435
2018-09-15T06:23:47.332Z,445
2018-09-15T06:24:47.326Z,445
2018-09-15T06:25:47.324Z,445
2018-09-15T06:26:47.323Z,455
2018-09-15T06:27:47.330Z,460
2018-09-15T06:28:47.328Z,455
2018-09-15T06:29:47.321Z,465
2018-09-15T06:30:47.339Z,455
2018-09-15T06:31:47.321Z,425
2018-09-15T06:32:47.570Z,425
2018-09-15T06:33:47.319Z,415
2018-09-15T06:34:47.334Z,480
2018-09-15T06:35:47.071Z,480
2018-09-15T06:36:47.328Z,435
2018-09-15T06:37:47.325Z,495
2018-09-15T06:38:47.333Z,465
2018-09-15T06:39:47.076Z,435
2018-09-15T06:40:47.080Z,420
2018-09-15T06:41:47.082Z,405
2018-09-15T06:42:46.824Z,405
2018-09-15T06:43:47.332Z,510
2018-09-15T06:44:47.340Z,515
2018-09-15T06:45:48.091Z,510
2018-09-15T06:46:47.330Z,515
2018-09-15T06:47:47.339Z,540
2018-09-15T06:48:47.088Z,545
2018-09-15T06:49:47.339Z,550
2018-09-15T06:50:47.332Z,560
2018-09-15T06:51:47.099Z,570
2018-09-15T06:52:46.838Z,560
2018-09-15T06:53:47.352Z,560
2018-09-15T06:54:47.346Z,560
2018-09-15T06:55:47.106Z,570
2018-09-15T06:56:47.347Z,605
2018-09-15T06:57:47.410Z,640
2018-09-15T06:58:46.853Z,630
2018-09-15T06:59:47.115Z,635
2018-09-15T07:00:47.528Z,650
2018-09-15T07:01:47.372Z,620
2018-09-15T07:02:47.111Z,630
2018-09-15T07:03:47.615Z,660
2018-09-15T07:04:47.119Z,675
2018-09-15T07:05:47.372Z,705
2018-09-15T07:06:47.384Z,705
2018-09-15T07:07:47.381Z,770
2018-09-15T07:08:47.132Z,895
2018-09-15T07:09:47.139Z,960
2018-09-15T07:10:47.396Z,955
2018-09-15T07:11:47.144Z,975
2018-09-15T07:12:47.147Z,955
2018-09-15T07:13:47.403Z,955
2018-09-15T07:14:47.161Z,965
2018-09-15T07:15:47.412Z,985
2018-09-15T07:16:47.415Z,1030
2018-09-15T07:17:47.165Z,1015
2018-09-15T07:18:47.427Z,1015
2018-09-15T07:19:46.924Z,1025
2018-09-15T07:20:47.445Z,1065
2018-09-15T07:21:47.464Z,1135
2018-09-15T07:22:47.200Z,1140
2018-09-15T07:23:47.453Z,1140
2018-09-15T07:24:49.141Z,1210
2018-09-15T07:25:47.288Z,1215
2018-09-15T07:26:47.476Z,1240
2018-09-15T07:27:47.486Z,1240
2018-09-15T07:28:47.487Z,1265
2018-09-15T07:29:47.497Z,1270
2018-09-15T07:30:47.511Z,1265
2018-09-15T07:31:47.777Z,1240
2018-09-15T07:32:47.520Z,1260
2018-09-15T07:33:47.525Z,1165
2018-09-15T07:34:47.456Z,985
2018-09-15T07:35:47.287Z,910
2018-09-15T07:36:47.548Z,895
2018-09-15T07:37:48.183Z,910
2018-09-15T07:38:47.053Z,915
2018-09-15T07:39:47.059Z,890
2018-09-15T07:40:47.576Z,910
2018-09-15T07:41:47.585Z,920
2018-09-15T07:42:47.338Z,935
2018-09-15T07:43:47.344Z,935
2018-09-15T07:44:47.910Z,945
2018-09-15T07:45:47.359Z,925
2018-09-15T07:46:47.364Z,895
2018-09-15T07:47:47.628Z,920
2018-09-15T07:48:47.397Z,935
2018-09-15T07:49:47.642Z,955
2018-09-15T07:50:47.152Z,940
2018-09-15T07:51:48.145Z,930
2018-09-15T07:52:47.665Z,925
2018-09-15T07:53:47.668Z,960
2018-09-15T07:54:47.671Z,970
2018-09-15T07:55:48.000Z,965
2018-09-15T07:56:47.687Z,960
2018-09-15T07:57:48.584Z,1000
2018-09-15T07:58:47.703Z,1000
2018-09-15T07:59:47.461Z,960
2018-09-15T08:00:47.467Z,1015
2018-09-15T08:01:47.471Z,1005
2018-09-15T08:02:47.481Z,1000
2018-09-15T08:03:47.766Z,990
2018-09-15T08:04:47.745Z,960
2018-09-15T08:05:47.749Z,670
2018-09-15T08:06:47.498Z,315
2018-09-15T08:07:47.760Z,275
2018-09-15T08:08:47.765Z,265
2018-09-15T08:09:47.766Z,260
2018-09-15T08:10:47.772Z,260
2018-09-15T08:11:47.786Z,265
2018-09-15T08:12:47.276Z,260
2018-09-15T08:13:47.536Z,255
2018-09-15T08:14:47.788Z,255
2018-09-15T08:15:47.794Z,255
2018-09-15T08:16:47.799Z,265
2018-09-15T08:17:47.308Z,270
2018-09-15T08:18:47.568Z,265
2018-09-15T08:19:47.803Z,260
2018-09-15T08:20:47.525Z,255
2018-09-15T08:21:47.551Z,255
2018-09-15T08:22:47.811Z,255
2018-09-15T08:23:47.809Z,250
2018-09-15T08:24:47.557Z,245
2018-09-15T08:25:47.817Z,240
2018-09-15T08:26:47.307Z,255
2018-09-15T08:27:47.886Z,295
2018-09-15T08:28:47.816Z,295
2018-09-15T08:29:47.818Z,285
2018-09-15T08:30:47.563Z,270
2018-09-15T08:31:47.600Z,250
2018-09-15T08:32:47.821Z,265
2018-09-15T08:33:47.609Z,290
2018-09-15T08:34:47.805Z,280
2018-09-15T08:35:47.806Z,295
2018-09-15T08:36:47.606Z,315
2018-09-15T08:37:48.168Z,300
2018-09-15T08:38:47.802Z,315
2018-09-15T08:39:47.309Z,320
2018-09-15T08:40:47.556Z,310
2018-09-15T08:41:47.798Z,295
2018-09-15T08:42:47.802Z,280
2018-09-15T08:43:47.547Z,300
2018-09-15T08:44:47.801Z,295
2018-09-15T08:45:47.543Z,280
2018-09-15T08:46:47.792Z,285
2018-09-15T08:47:47.802Z,275
2018-09-15T08:48:47.793Z,265
2018-09-15T08:49:47.537Z,250
2018-09-15T08:50:47.549Z,245
2018-09-15T08:51:47.783Z,250
2018-09-15T08:52:47.526Z,250
2018-09-15T08:53:47.523Z,240
2018-09-15T08:54:47.523Z,240
2018-09-15T08:55:47.532Z,240
2018-09-15T08:56:47.530Z,250
2018-09-15T08:57:47.518Z,275
2018-09-15T08:58:47.518Z,300
2018-09-15T08:59:47.517Z,265
2018-09-15T09:00:47.509Z,250
2018-09-15T09:01:47.764Z,255
2018-09-15T09:02:47.508Z,230
2018-09-15T09:03:47.799Z,235
2018-09-15T09:04:47.755Z,235
2018-09-15T09:05:47.761Z,240
2018-09-15T09:06:47.757Z,240
2018-09-15T09:07:47.748Z,255
2018-09-15T09:08:48.001Z,270
2018-09-15T09:09:47.743Z,285
2018-09-15T09:10:47.494Z,275
2018-09-15T09:11:47.495Z,280
2018-09-15T09:12:47.234Z,290
2018-09-15T09:13:47.744Z,280
2018-09-15T09:14:47.481Z,265
2018-09-15T09:15:47.733Z,260
2018-09-15T09:16:47.498Z,265
2018-09-15T09:17:47.730Z,280
2018-09-15T09:18:47.728Z,270
2018-09-15T09:19:47.535Z,245
2018-09-15T09:20:47.723Z,230
2018-09-15T09:21:47.732Z,225
2018-09-15T09:22:47.734Z,225
2018-09-15T09:23:47.460Z,220
2018-09-15T09:24:47.714Z,215
2018-09-15T09:25:47.870Z,225
2018-09-15T09:26:47.516Z,250
2018-09-15T09:27:47.204Z,290
2018-09-15T09:28:47.448Z,320
2018-09-15T09:29:47.445Z,315
2018-09-15T09:30:47.448Z,280
2018-09-15T09:31:47.701Z,240
2018-09-15T09:32:47.693Z,235
2018-09-15T09:33:47.687Z,230
2018-09-15T09:34:47.689Z,225
2018-09-15T09:35:47.432Z,215
2018-09-15T09:36:47.435Z,220
2018-09-15T09:37:47.173Z,220
2018-09-15T09:38:47.431Z,215
2018-09-15T09:39:47.678Z,220
2018-09-15T09:40:47.688Z,230
2018-09-15T09:41:47.676Z,250
2018-09-15T09:42:47.668Z,285
2018-09-15T09:43:47.420Z,315
2018-09-15T09:44:47.661Z,340
2018-09-15T09:45:47.662Z,325
2018-09-15T09:46:47.657Z,350
2018-09-15T09:47:47.784Z,365
2018-09-15T09:48:47.655Z,330
2018-09-15T09:49:47.653Z,305
2018-09-15T09:50:47.651Z,305
2018-09-15T09:51:47.650Z,315
2018-09-15T09:52:47.648Z,340
2018-09-15T09:53:47.396Z,350
2018-09-15T09:54:47.640Z,365
2018-09-15T09:55:47.635Z,340
2018-09-15T09:56:47.638Z,355
2018-09-15T09:57:47.640Z,375
2018-09-15T09:58:47.629Z,365
2018-09-15T09:59:47.630Z,330
2018-09-15T10:00:47.630Z,300
2018-09-15T10:01:47.631Z,290
2018-09-15T10:02:47.377Z,285
2018-09-15T10:03:47.369Z,270
2018-09-15T10:04:47.620Z,265
2018-09-15T10:05:47.616Z,295
2018-09-15T10:06:47.622Z,320
2018-09-15T10:07:47.742Z,305
2018-09-15T10:08:47.113Z,305
2018-09-15T10:09:47.611Z,330
2018-09-15T10:10:47.862Z,380
2018-09-15T10:11:47.610Z,395
2018-09-15T10:12:47.644Z,370
2018-09-15T10:13:47.601Z,330
2018-09-15T10:14:47.602Z,300
2018-09-15T10:15:47.692Z,290
2018-09-15T10:16:47.348Z,280
2018-09-15T10:17:47.091Z,270
2018-09-15T10:18:47.357Z,280
2018-09-15T10:19:47.344Z,285
2018-09-15T10:20:47.095Z,275
2018-09-15T10:21:47.628Z,275
2018-09-15T10:22:47.593Z,270
2018-09-15T10:23:47.336Z,260
2018-09-15T10:24:47.590Z,265
2018-09-15T10:25:47.588Z,265
2018-09-15T10:26:47.334Z,260
2018-09-15T10:27:47.584Z,270
2018-09-15T10:28:47.577Z,270
2018-09-15T10:29:47.576Z,295
2018-09-15T10:30:47.322Z,325
2018-09-15T10:31:47.329Z,340
2018-09-15T10:32:47.320Z,350
2018-09-15T10:33:47.318Z,340
2018-09-15T10:34:47.317Z,315
2018-09-15T10:35:47.583Z,305
2018-09-15T10:36:47.570Z,315
2018-09-15T10:37:47.576Z,325
2018-09-15T10:38:47.578Z,315
2018-09-15T10:39:47.319Z,325
2018-09-15T10:40:47.312Z,330
2018-09-15T10:41:47.564Z,370
2018-09-15T10:42:47.310Z,435
2018-09-15T10:43:47.306Z,455
2018-09-15T10:44:47.313Z,425
2018-09-15T10:45:47.320Z,390
2018-09-15T10:46:47.978Z,370
2018-09-15T10:47:47.307Z,390
2018-09-15T10:48:47.307Z,410
2018-09-15T10:49:47.573Z,380
2018-09-15T10:50:47.562Z,360
2018-09-15T10:51:47.556Z,315
2018-09-15T10:52:47.582Z,305
2018-09-15T10:53:47.555Z,280
2018-09-15T10:54:47.313Z,280
2018-09-15T10:55:47.565Z,275
2018-09-15T10:56:47.560Z,275
2018-09-15T10:57:47.552Z,280
2018-09-15T10:58:47.560Z,300
2018-09-15T10:59:47.594Z,315
2018-09-15T11:00:47.861Z,320
2018-09-15T11:01:47.544Z,330
2018-09-15T11:02:47.544Z,325
2018-09-15T11:03:47.553Z,325
2018-09-15T11:04:47.300Z,310
2018-09-15T11:05:47.414Z,290
2018-09-15T11:06:47.297Z,280
2018-09-15T11:07:47.544Z,280
2018-09-15T11:08:47.300Z,285
2018-09-15T11:09:47.549Z,290
2018-09-15T11:10:47.289Z,300
2018-09-15T11:11:47.547Z,300
2018-09-15T11:12:46.784Z,300
2018-09-15T11:13:47.931Z,305
2018-09-15T11:14:47.542Z,295
2018-09-15T11:15:47.286Z,320
2018-09-15T11:16:47.352Z,345
2018-09-15T11:17:47.282Z,385
2018-09-15T11:18:47.290Z,395
2018-09-15T11:19:47.536Z,380
2018-09-15T11:20:47.280Z,365
2018-09-15T11:21:47.538Z,365
2018-09-15T11:22:47.721Z,370
2018-09-15T11:23:47.527Z,395
2018-09-15T11:24:47.534Z,440
2018-09-15T11:25:47.537Z,480
2018-09-15T11:26:47.025Z,530
2018-09-15T11:27:47.526Z,535
2018-09-15T11:28:48.094Z,470
2018-09-15T11:29:47.533Z,400
2018-09-15T11:30:47.281Z,345
2018-09-15T11:31:47.533Z,315
2018-09-15T11:32:47.277Z,300
2018-09-15T11:33:47.546Z,280
2018-09-15T11:34:47.525Z,265
2018-09-15T11:35:47.280Z,260
2018-09-15T11:36:47.529Z,250
2018-09-15T11:37:47.528Z,240
2018-09-15T11:38:47.532Z,240
2018-09-15T11:39:47.273Z,240
2018-09-15T11:40:47.526Z,235
2018-09-15T11:41:47.526Z,235
2018-09-15T11:42:47.274Z,230
2018-09-15T11:43:47.673Z,230
2018-09-15T11:44:47.789Z,225
2018-09-15T11:45:47.271Z,240
2018-09-15T11:46:47.268Z,255
2018-09-15T11:47:47.606Z,260
2018-09-15T11:48:47.527Z,260
2018-09-15T11:49:47.532Z,280
2018-09-15T11:50:47.526Z,280
2018-09-15T11:51:47.523Z,280
2018-09-15T11:52:47.520Z,280
2018-09-15T11:53:47.354Z,280
2018-09-15T11:54:47.275Z,275
2018-09-15T11:55:47.277Z,295
2018-09-15T11:56:47.520Z,330
2018-09-15T11:57:47.269Z,385
2018-09-15T11:58:47.021Z,420
2018-09-15T11:59:47.266Z,420
2018-09-15T12:00:47.522Z,410
2018-09-15T12:01:47.016Z,410
2018-09-15T12:02:47.265Z,405
2018-09-15T12:03:47.515Z,405
2018-09-15T12:04:47.559Z,405
2018-09-15T12:05:47.519Z,405
2018-09-15T12:06:47.519Z,385
2018-09-15T12:07:47.682Z,375
2018-09-15T12:08:47.522Z,370
2018-09-15T12:09:47.055Z,365
2018-09-15T12:10:47.017Z,350
2018-09-15T12:11:47.532Z,335
2018-09-15T12:12:47.260Z,325
2018-09-15T12:13:47.523Z,330
2018-09-15T12:14:47.266Z,340
2018-09-15T12:15:47.758Z,340
2018-09-15T12:16:47.265Z,325
2018-09-15T12:17:47.565Z,315
2018-09-15T12:18:47.260Z,315
2018-09-15T12:19:47.515Z,310
2018-09-15T12:20:47.521Z,315
2018-09-15T12:21:47.961Z,315
2018-09-15T12:22:47.016Z,320
2018-09-15T12:23:47.262Z,340
2018-09-15T12:24:47.010Z,375
2018-09-15T12:25:47.515Z,395
2018-09-15T12:26:47.265Z,390
2018-09-15T12:27:47.737Z,380
2018-09-15T12:28:47.008Z,380
2018-09-15T12:29:47.512Z,370
2018-09-15T12:30:47.266Z,360
2018-09-15T12:31:47.519Z,355
2018-09-15T12:32:47.518Z,370
2018-09-15T12:33:47.738Z,395
2018-09-15T12:34:47.518Z,420
2018-09-15T12:35:47.515Z,440
2018-09-15T12:36:47.263Z,440
2018-09-15T12:37:47.514Z,410
2018-09-15T12:38:47.522Z,375
2018-09-15T12:39:47.264Z,325
2018-09-15T12:40:47.516Z,290
2018-09-15T12:41:47.528Z,255
2018-09-15T12:42:47.015Z,235
2018-09-15T12:43:47.015Z,215
2018-09-15T12:44:47.518Z,210
2018-09-15T12:45:47.271Z,220
2018-09-15T12:46:47.767Z,240
2018-09-15T12:47:47.268Z,270
2018-09-15T12:48:47.270Z,305
2018-09-15T12:49:47.277Z,340
2018-09-15T12:50:47.522Z,375
2018-09-15T12:51:47.529Z,390
2018-09-15T12:52:47.527Z,410
2018-09-15T12:53:47.523Z,425
2018-09-15T12:54:47.526Z,420
2018-09-15T12:55:47.530Z,410
2018-09-15T12:56:47.277Z,405
2018-09-15T12:57:47.952Z,400
2018-09-15T12:58:47.272Z,400
2018-09-15T12:59:47.527Z,385
2018-09-15T13:00:47.274Z,385
2018-09-15T13:01:47.285Z,390
2018-09-15T13:02:47.280Z,400
2018-09-15T13:03:47.532Z,395
2018-09-15T13:04:47.534Z,380
2018-09-15T13:05:47.274Z,365
2018-09-15T13:06:47.535Z,365
2018-09-15T13:07:47.274Z,370
2018-09-15T13:08:47.525Z,370
2018-09-15T13:09:47.532Z,360
2018-09-15T13:10:47.548Z,340
2018-09-15T13:11:47.284Z,330
2018-09-15T13:12:47.024Z,345
2018-09-15T13:13:47.031Z,360
2018-09-15T13:14:47.595Z,365
2018-09-15T13:15:47.678Z,380
2018-09-15T13:16:47.031Z,390
2018-09-15T13:17:47.830Z,395
2018-09-15T13:18:47.286Z,395
2018-09-15T13:19:47.030Z,385
2018-09-15T13:20:47.533Z,385
2018-09-15T13:21:47.034Z,385
2018-09-15T13:22:47.032Z,390
2018-09-15T13:23:47.181Z,400
2018-09-15T13:24:47.543Z,405
2018-09-15T13:25:47.288Z,400
2018-09-15T13:26:47.536Z,385
2018-09-15T13:27:47.541Z,380
2018-09-15T13:28:47.288Z,375
2018-09-15T13:29:48.297Z,380
2018-09-15T13:30:47.545Z,380
2018-09-15T13:31:47.294Z,380
2018-09-15T13:32:47.039Z,385
2018-09-15T13:33:47.293Z,395
2018-09-15T13:34:47.044Z,390
2018-09-15T13:35:46.792Z,390
2018-09-15T13:36:47.560Z,375
2018-09-15T13:37:47.894Z,350
2018-09-15T13:38:47.298Z,325
2018-09-15T13:39:47.554Z,295
2018-09-15T13:40:47.295Z,275
2018-09-15T13:41:47.309Z,280
2018-09-15T13:42:47.310Z,300
2018-09-15T13:43:47.299Z,320
2018-09-15T13:44:47.564Z,335
2018-09-15T13:45:47.053Z,345
2018-09-15T13:46:47.648Z,350
2018-09-15T13:47:47.576Z,350
2018-09-15T13:48:47.812Z,345
2018-09-15T13:49:47.304Z,345
2018-09-15T13:50:47.304Z,340
2018-09-15T13:51:47.310Z,340
2018-09-15T13:52:47.327Z,345
2018-09-15T13:53:47.312Z,345
2018-09-15T13:54:47.574Z,335
2018-09-15T13:55:47.314Z,315
2018-09-15T13:56:47.312Z,295
2018-09-15T13:57:47.575Z,275
2018-09-15T13:58:47.428Z,260
2018-09-15T13:59:47.058Z,250
2018-09-15T14:00:46.808Z,250
2018-09-15T14:01:47.572Z,255
2018-09-15T14:02:47.315Z,255
2018-09-15T14:03:47.070Z,255
2018-09-15T14:04:47.241Z,265
2018-09-15T14:05:47.082Z,280
2018-09-15T14:06:47.577Z,290